createdAt,value
2017-02-18T00:00:01.548Z,8.1
2017-02-18T00:05:01.541Z,8
2017-02-18T00:10:01.357Z,8
2017-02-18T00:15:01.324Z,8
2017-02-18T00:20:01.237Z,8.1
2017-02-18T00:25:01.255Z,8.1
2017-02-18T00:30:02.071Z,8
2017-02-18T00:35:01.239Z,8.1
2017-02-18T00:40:01.947Z,8
2017-02-18T00:45:01.952Z,8
2017-02-18T00:50:01.745Z,8
2017-02-18T00:55:01.535Z,8.1
2017-02-18T01:00:01.329Z,8
2017-02-18T01:05:02.171Z,8
2017-02-18T01:10:02.034Z,8
2017-02-18T01:15:01.948Z,8
2017-02-18T01:20:01.968Z,8
2017-02-18T01:25:01.811Z,8
2017-02-18T01:30:02.108Z,8
2017-02-18T01:35:01.362Z,8
2017-02-18T01:40:02.194Z,8
2017-02-18T01:45:01.351Z,8
2017-02-18T01:50:01.298Z,8
2017-02-18T01:55:02.097Z,8
2017-02-18T02:00:01.865Z,8
2017-02-18T02:05:01.676Z,8
2017-02-18T02:10:01.486Z,8
2017-02-18T02:15:01.400Z,8
2017-02-18T02:20:01.373Z,8
2017-02-18T02:25:02.086Z,8
2017-02-18T02:30:01.821Z,8
2017-02-18T02:35:01.589Z,8
2017-02-18T02:40:01.434Z,8
2017-02-18T02:45:01.302Z,8
2017-02-18T02:50:02.004Z,8
2017-02-18T02:55:01.764Z,8
2017-02-18T03:00:01.562Z,8
2017-02-18T03:05:01.469Z,8
2017-02-18T03:10:01.239Z,8
2017-02-18T03:15:01.731Z,8
2017-02-18T03:20:01.459Z,8
2017-02-18T03:25:01.597Z,8
2017-02-18T03:30:01.939Z,8
2017-02-18T03:35:01.766Z,8
2017-02-18T03:40:02.015Z,8
2017-02-18T03:45:01.499Z,8
2017-02-18T03:50:01.656Z,8
2017-02-18T03:55:01.194Z,8
2017-02-18T04:00:01.317Z,8
2017-02-18T04:05:01.430Z,8
2017-02-18T04:10:01.347Z,7.9
2017-02-18T04:15:01.687Z,8
2017-02-18T04:20:01.884Z,8
2017-02-18T04:25:01.272Z,7.9
2017-02-18T04:30:01.445Z,7.9
2017-02-18T04:35:01.432Z,7.9
2017-02-18T04:40:01.483Z,7.9
2017-02-18T04:45:01.687Z,7.9
2017-02-18T04:50:02.229Z,7.9
2017-02-18T04:55:01.972Z,7.9
2017-02-18T05:00:01.264Z,7.9
2017-02-18T05:05:01.801Z,7.8
2017-02-18T05:10:01.638Z,7.9
2017-02-18T05:15:01.833Z,7.9
2017-02-18T05:20:01.461Z,7.8
2017-02-18T05:25:01.597Z,7.8
2017-02-18T05:30:01.873Z,7.8
2017-02-18T05:35:01.713Z,7.8
2017-02-18T05:40:01.682Z,7.8
2017-02-18T05:45:01.931Z,7.8
2017-02-18T05:50:01.722Z,7.8
2017-02-18T05:55:01.481Z,7.8
2017-02-18T06:00:01.605Z,7.8
2017-02-18T06:05:02.046Z,7.8
2017-02-18T06:10:01.792Z,7.8
2017-02-18T06:15:01.803Z,7.8
2017-02-18T06:20:01.242Z,7.8
2017-02-18T06:25:01.741Z,7.8
2017-02-18T06:30:01.990Z,7.8
2017-02-18T06:35:01.846Z,7.8
2017-02-18T06:40:01.946Z,7.8
2017-02-18T06:45:01.510Z,7.8
2017-02-18T06:50:01.516Z,7.8
2017-02-18T06:55:02.087Z,7.8
2017-02-18T07:00:01.471Z,7.8
2017-02-18T07:05:01.769Z,7.8
2017-02-18T07:10:02.098Z,7.8
2017-02-18T07:15:01.233Z,7.8
2017-02-18T07:20:01.937Z,7.8
2017-02-18T07:25:01.492Z,7.8
2017-02-18T07:30:01.775Z,7.8
2017-02-18T07:35:01.731Z,7.9
2017-02-18T07:40:01.586Z,7.8
2017-02-18T07:45:01.180Z,7.8
2017-02-18T07:50:01.873Z,7.8
2017-02-18T07:55:01.543Z,7.9
2017-02-18T08:00:01.613Z,7.8
2017-02-18T08:05:01.445Z,7.8
2017-02-18T08:10:01.955Z,7.9
2017-02-18T08:15:01.266Z,7.8
2017-02-18T08:20:01.705Z,7.8
2017-02-18T08:25:01.774Z,7.9
2017-02-18T08:30:01.209Z,7.8
2017-02-18T08:35:01.951Z,7.9
2017-02-18T08:40:02.083Z,7.8
2017-02-18T08:45:02.156Z,8
2017-02-18T08:50:01.984Z,7.9
2017-02-18T08:55:01.660Z,7.9
2017-02-18T09:00:02.059Z,7.9
2017-02-18T09:05:01.880Z,7.9
2017-02-18T09:10:02.074Z,7.9
2017-02-18T09:15:01.368Z,7.9
2017-02-18T09:20:01.779Z,7.9
2017-02-18T09:25:01.846Z,8
2017-02-18T09:30:01.321Z,8
2017-02-18T09:35:02.162Z,8
2017-02-18T09:40:02.014Z,8
2017-02-18T09:45:01.640Z,8
2017-02-18T09:50:01.444Z,8.1
2017-02-18T09:55:02.096Z,8
2017-02-18T10:00:02.176Z,8
2017-02-18T10:05:01.441Z,8
2017-02-18T10:10:01.295Z,8.1
2017-02-18T10:15:01.535Z,8
2017-02-18T10:20:01.872Z,8
2017-02-18T10:25:01.773Z,8
2017-02-18T10:30:01.906Z,8
2017-02-18T10:35:01.463Z,8
2017-02-18T10:40:01.260Z,8
2017-02-18T10:45:01.535Z,8
2017-02-18T10:50:01.326Z,8
2017-02-18T10:55:01.713Z,8
2017-02-18T11:00:01.819Z,8
2017-02-18T11:05:01.752Z,8
2017-02-18T11:10:01.673Z,8
2017-02-18T11:15:01.353Z,7.9
2017-02-18T11:20:02.044Z,7.9
2017-02-18T11:25:01.991Z,8
2017-02-18T11:30:01.289Z,8
2017-02-18T11:35:01.749Z,7.9
2017-02-18T11:40:01.861Z,8
2017-02-18T11:45:01.619Z,8
2017-02-18T11:50:01.890Z,8.1
2017-02-18T11:55:01.623Z,8
2017-02-18T12:00:01.995Z,8.1
2017-02-18T12:05:01.845Z,8.1
2017-02-18T12:10:01.506Z,8.1
2017-02-18T12:15:01.971Z,8.1
2017-02-18T12:20:01.965Z,8.2
2017-02-18T12:25:01.839Z,8.2
2017-02-18T12:30:01.367Z,8.1
2017-02-18T12:35:01.566Z,8.2
2017-02-18T12:40:02.060Z,8.1
2017-02-18T12:45:01.842Z,8.2
2017-02-18T12:50:01.276Z,8.2
2017-02-18T12:55:02.052Z,8.2
2017-02-18T13:00:01.198Z,8.2
2017-02-18T13:05:01.632Z,8.2
2017-02-18T13:10:01.700Z,8.3
2017-02-18T13:15:02.288Z,8.4
2017-02-18T13:20:01.950Z,8.3
2017-02-18T13:25:01.267Z,8.3
2017-02-18T13:30:01.768Z,8.3
2017-02-18T13:35:01.285Z,8.3
2017-02-18T13:40:01.791Z,8.3
2017-02-18T13:45:01.525Z,8.2
2017-02-18T13:50:01.609Z,8.2
2017-02-18T13:55:02.045Z,8.2
2017-02-18T14:00:01.587Z,8.2
2017-02-18T14:05:01.897Z,8.1
2017-02-18T14:10:02.169Z,8.1
2017-02-18T14:15:01.566Z,8.1
2017-02-18T14:20:01.399Z,8.1
2017-02-18T14:25:01.450Z,8.2
2017-02-18T14:30:01.844Z,8.2
2017-02-18T14:35:01.849Z,8.1
2017-02-18T14:40:01.894Z,8.1
2017-02-18T14:45:01.777Z,8
2017-02-18T14:50:01.831Z,8.1
2017-02-18T14:55:01.636Z,8
2017-02-18T15:00:02.051Z,8.1
2017-02-18T15:05:02.045Z,8.1
2017-02-18T15:10:01.522Z,8.1
2017-02-18T15:15:01.975Z,8
2017-02-18T15:20:02.092Z,8
2017-02-18T15:25:01.416Z,8
2017-02-18T15:30:02.065Z,8
2017-02-18T15:35:02.103Z,8.1
2017-02-18T15:40:01.278Z,8
2017-02-18T15:45:01.899Z,8
2017-02-18T15:50:01.564Z,8
2017-02-18T15:55:01.660Z,7.9
2017-02-18T16:00:01.692Z,8
2017-02-18T16:05:02.140Z,7.9
2017-02-18T16:10:01.377Z,8
2017-02-18T16:15:02.542Z,7.9
2017-02-18T16:20:01.531Z,7.9
2017-02-18T16:25:02.069Z,7.9
2017-02-18T16:30:02.046Z,7.8
2017-02-18T16:35:02.125Z,7.8
2017-02-18T16:40:01.269Z,7.9
2017-02-18T16:45:01.525Z,7.8
2017-02-18T16:50:02.206Z,7.8
2017-02-18T16:55:01.959Z,7.8
2017-02-18T17:00:01.993Z,7.8
2017-02-18T17:05:01.942Z,7.7
2017-02-18T17:10:01.454Z,7.7
2017-02-18T17:15:01.719Z,7.7
2017-02-18T17:20:01.729Z,7.7
2017-02-18T17:25:01.246Z,7.6
2017-02-18T17:30:01.492Z,7.6
2017-02-18T17:35:01.945Z,7.6
2017-02-18T17:40:01.892Z,7.6
2017-02-18T17:45:01.583Z,7.6
2017-02-18T17:50:01.534Z,7.6
2017-02-18T17:55:02.170Z,7.6
2017-02-18T18:00:01.152Z,7.6
2017-02-18T18:05:01.285Z,7.6
2017-02-18T18:10:02.048Z,7.6
2017-02-18T18:15:01.321Z,7.6
2017-02-18T18:20:01.875Z,7.6
2017-02-18T18:25:01.887Z,7.6
2017-02-18T18:30:01.861Z,7.6
2017-02-18T18:35:01.364Z,7.6
2017-02-18T18:40:01.632Z,7.6
2017-02-18T18:45:01.938Z,7.6
2017-02-18T18:50:01.631Z,7.6
2017-02-18T18:55:01.555Z,7.7
2017-02-18T19:00:01.830Z,7.6
2017-02-18T19:05:02.044Z,7.6
2017-02-18T19:10:02.831Z,7.7
2017-02-18T19:15:01.539Z,7.7
2017-02-18T19:20:01.977Z,7.6
2017-02-18T19:25:01.977Z,7.6
2017-02-18T19:30:01.527Z,7.6
2017-02-18T19:35:02.289Z,7.6
2017-02-18T19:40:02.614Z,7.6
2017-02-18T19:45:01.610Z,7.6
2017-02-18T19:50:01.715Z,7.6
2017-02-18T19:55:01.902Z,7.6
2017-02-18T20:00:02.312Z,7.6
2017-02-18T20:05:02.041Z,7.6
2017-02-18T20:10:02.145Z,7.6
2017-02-18T20:15:01.884Z,7.6
2017-02-18T20:20:02.361Z,7.6
2017-02-18T20:25:01.794Z,7.6
2017-02-18T20:30:01.864Z,7.6
2017-02-18T20:35:02.106Z,7.6
2017-02-18T20:40:02.021Z,7.7
2017-02-18T20:45:01.284Z,7.7
2017-02-18T20:50:01.560Z,7.7
2017-02-18T20:55:01.361Z,7.7
2017-02-18T21:00:01.810Z,7.8
2017-02-18T21:05:02.167Z,7.8
2017-02-18T21:10:01.239Z,7.8
2017-02-18T21:15:01.802Z,7.7
2017-02-18T21:20:01.309Z,7.7
2017-02-18T21:25:01.473Z,7.8
2017-02-18T21:30:01.860Z,7.8
2017-02-18T21:35:01.747Z,7.8
2017-02-18T21:40:02.093Z,7.8
2017-02-18T21:45:01.286Z,7.8
2017-02-18T21:50:01.605Z,7.8
2017-02-18T21:55:01.787Z,7.8
2017-02-18T22:00:01.275Z,7.8
2017-02-18T22:05:01.919Z,7.8
2017-02-18T22:10:01.660Z,7.8
2017-02-18T22:15:01.504Z,7.8
2017-02-18T22:20:01.622Z,7.7
2017-02-18T22:25:01.944Z,7.7
2017-02-18T22:30:02.079Z,7.7
2017-02-18T22:35:02.132Z,7.7
2017-02-18T22:40:01.276Z,7.7
2017-02-18T22:45:01.781Z,7.6
2017-02-18T22:50:01.979Z,7.6
2017-02-18T22:55:02.479Z,7.6
2017-02-18T23:00:01.837Z,7.6
2017-02-18T23:05:01.411Z,7.6
2017-02-18T23:10:02.208Z,7.6
2017-02-18T23:15:01.417Z,7.6
2017-02-18T23:20:01.977Z,7.6
2017-02-18T23:25:02.212Z,7.6
2017-02-18T23:30:02.129Z,7.6
2017-02-18T23:35:01.909Z,7.5
2017-02-18T23:40:01.900Z,7.5
2017-02-18T23:45:01.439Z,7.5
2017-02-18T23:50:01.952Z,7.5
2017-02-18T23:55:02.149Z,7.5
